createdAt,value
2019-05-22T00:03:58.232Z,83.22
2019-05-22T00:09:00.714Z,82.72
2019-05-22T00:14:03.206Z,83.06
2019-05-22T00:19:05.794Z,83.06
2019-05-22T00:24:08.321Z,82.79
2019-05-22T00:29:10.868Z,82.68
2019-05-22T00:34:13.327Z,82.79
2019-05-22T00:39:15.816Z,82.97
2019-05-22T00:44:18.301Z,83.33
2019-05-22T00:49:20.790Z,83.07
2019-05-22T00:54:29.051Z,83.06
2019-05-22T00:59:34.077Z,83.20
2019-05-22T01:04:36.579Z,83.10
2019-05-22T01:09:45.205Z,82.84
2019-05-22T01:14:47.628Z,83.29
2019-05-22T01:19:50.111Z,82.90
2019-05-22T01:24:52.605Z,82.86
2019-05-22T01:29:55.082Z,82.68
2019-05-22T01:34:57.567Z,83.02
2019-05-22T01:40:05.555Z,83.21
2019-05-22T01:45:08.792Z,83.11
2019-05-22T01:50:14.062Z,82.92
2019-05-22T01:55:16.551Z,82.55
2019-05-22T02:00:19.043Z,83.05
2019-05-22T02:05:21.580Z,82.83
2019-05-22T02:10:36.091Z,82.87
2019-05-22T02:15:38.579Z,83.04
2019-05-22T02:20:41.072Z,83.00
2019-05-22T02:25:43.598Z,82.86
2019-05-22T02:30:46.103Z,83.11
2019-05-22T02:35:48.569Z,82.94
2019-05-22T02:40:51.060Z,82.73
2019-05-22T02:45:53.562Z,82.75
2019-05-22T02:50:56.049Z,82.79
2019-05-22T02:55:58.556Z,82.56
2019-05-22T03:01:01.039Z,82.77
2019-05-22T03:06:03.538Z,83.05
2019-05-22T03:11:06.021Z,83.25
2019-05-22T03:16:08.525Z,82.98
2019-05-22T03:21:11.007Z,82.95
2019-05-22T03:26:13.725Z,83.09
2019-05-22T03:31:16.112Z,82.86
2019-05-22T03:36:18.481Z,83.09
2019-05-22T03:41:20.972Z,83.38
2019-05-22T03:46:29.611Z,83.15
2019-05-22T03:51:32.099Z,83.11
2019-05-22T03:56:34.644Z,83.12
2019-05-22T04:01:37.153Z,83.01
2019-05-22T04:06:39.690Z,83.16
2019-05-22T04:11:44.881Z,82.78
2019-05-22T04:16:47.380Z,82.69
2019-05-22T04:21:49.865Z,82.77
2019-05-22T04:26:52.354Z,82.33
2019-05-22T04:31:54.850Z,82.59
2019-05-22T04:36:57.380Z,82.37
2019-05-22T04:41:59.865Z,82.32
2019-05-22T04:47:02.354Z,81.89
2019-05-22T04:52:04.845Z,81.68
2019-05-22T04:57:07.335Z,82.04
2019-05-22T05:02:09.815Z,81.55
2019-05-22T05:07:12.311Z,81.75
2019-05-22T05:12:14.808Z,81.43
2019-05-22T05:17:17.290Z,81.49
2019-05-22T05:22:19.790Z,81.70
2019-05-22T05:27:22.291Z,81.34
2019-05-22T05:32:24.783Z,80.50
2019-05-22T05:37:27.275Z,80.22
2019-05-22T05:42:29.767Z,79.25
2019-05-22T05:47:32.268Z,78.93
2019-05-22T05:52:34.750Z,79.08
2019-05-22T05:57:40.098Z,79.39
2019-05-22T06:02:55.530Z,79.39
2019-05-22T06:07:45.083Z,79.05
2019-05-22T06:12:47.571Z,79.09
2019-05-22T06:18:24.262Z,79.03
2019-05-22T06:23:29.872Z,78.80
2019-05-22T06:28:35.452Z,78.57
2019-05-22T06:33:37.915Z,78.54
2019-05-22T06:38:55.865Z,78.23
2019-05-22T06:44:25.777Z,78.08
2019-05-22T06:49:31.366Z,77.80
2019-05-22T06:54:33.851Z,77.58
2019-05-22T06:59:36.335Z,77.96
2019-05-22T07:04:38.817Z,77.65
2019-05-22T07:09:41.323Z,77.54
2019-05-22T07:14:53.041Z,76.98
2019-05-22T07:19:55.524Z,76.71
2019-05-22T07:24:58.055Z,76.36
2019-05-22T07:30:00.551Z,76.78
2019-05-22T07:35:03.078Z,76.58
2019-05-22T07:40:05.574Z,76.03
2019-05-22T07:45:08.218Z,75.92
2019-05-22T07:50:10.705Z,75.34
2019-05-22T07:55:13.211Z,74.73
2019-05-22T08:00:15.700Z,74.74
2019-05-22T08:05:18.196Z,74.11
2019-05-22T08:10:20.691Z,74.39
2019-05-22T08:15:23.168Z,73.36
2019-05-22T08:20:25.653Z,73.00
2019-05-22T08:25:28.145Z,73.63
2019-05-22T08:30:30.660Z,73.31
2019-05-22T08:35:33.152Z,72.88
2019-05-22T08:40:35.778Z,72.46
2019-05-22T08:45:38.246Z,72.22
2019-05-22T08:50:40.734Z,72.32
2019-05-22T08:55:43.239Z,72.36
2019-05-22T09:00:45.722Z,72.33
2019-05-22T09:05:48.238Z,72.22
2019-05-22T09:10:50.697Z,72.28
2019-05-22T09:15:53.199Z,71.87
2019-05-22T09:20:55.695Z,71.07
2019-05-22T09:25:58.188Z,68.90
2019-05-22T09:31:00.700Z,68.40
2019-05-22T09:36:03.237Z,66.33
2019-05-22T09:41:05.731Z,62.28
2019-05-22T09:46:08.259Z,62.27
2019-05-22T09:51:10.726Z,61.35
2019-05-22T09:56:13.226Z,64.04
2019-05-22T10:01:15.740Z,64.69
2019-05-22T10:06:21.519Z,63.32
2019-05-22T10:11:20.773Z,63.64
2019-05-22T10:16:23.261Z,63.80
2019-05-22T10:21:25.730Z,64.94
2019-05-22T10:26:28.227Z,65.90
2019-05-22T10:31:30.711Z,65.05
2019-05-22T10:36:33.304Z,63.90
2019-05-22T10:41:35.690Z,62.71
2019-05-22T10:46:38.196Z,63.31
2019-05-22T10:51:40.678Z,62.99
2019-05-22T10:56:43.180Z,62.89
2019-05-22T11:01:45.675Z,63.36
2019-05-22T11:06:48.168Z,63.67
2019-05-22T11:11:50.652Z,62.85
2019-05-22T11:16:53.197Z,60.91
2019-05-22T11:21:57.096Z,60.17
2019-05-22T11:26:58.175Z,62.84
2019-05-22T11:32:00.663Z,61.60
2019-05-22T11:37:03.192Z,57.59
2019-05-22T11:42:05.844Z,55.52
2019-05-22T11:47:08.321Z,52.24
2019-05-22T11:52:10.819Z,50.64
2019-05-22T11:57:13.306Z,47.93
2019-05-22T12:02:15.807Z,49.55
2019-05-22T12:07:18.297Z,53.06
2019-05-22T12:12:20.875Z,42.42
2019-05-22T12:17:37.451Z,47.90
2019-05-22T12:22:25.877Z,50.54
2019-05-22T12:27:28.366Z,49.22
2019-05-22T12:32:30.895Z,52.43
2019-05-22T12:37:33.384Z,52.00
2019-05-22T12:42:35.897Z,50.57
2019-05-22T12:47:38.390Z,47.03
2019-05-22T12:52:40.869Z,38.42
2019-05-22T12:57:43.372Z,35.71
2019-05-22T13:02:45.866Z,47.53
2019-05-22T13:07:48.345Z,43.67
2019-05-22T13:12:51.170Z,48.94
2019-05-22T13:17:53.488Z,42.75
2019-05-22T13:22:56.002Z,42.11
2019-05-22T13:27:58.485Z,44.41
2019-05-22T13:33:00.981Z,47.83
2019-05-22T13:38:03.489Z,49.42
2019-05-22T13:43:05.974Z,53.27
2019-05-22T13:48:08.463Z,46.95
2019-05-22T13:53:10.928Z,46.21
2019-05-22T13:58:13.445Z,49.83
2019-05-22T14:03:15.926Z,49.35
2019-05-22T14:08:18.434Z,47.54
2019-05-22T14:13:20.921Z,50.00
2019-05-22T14:18:23.420Z,49.45
2019-05-22T14:23:25.922Z,52.92
2019-05-22T14:28:28.412Z,53.72
2019-05-22T14:33:30.905Z,54.69
2019-05-22T14:38:33.472Z,53.72
2019-05-22T14:43:35.919Z,52.92
2019-05-22T14:48:38.481Z,50.30
2019-05-22T14:53:40.971Z,49.63
2019-05-22T14:58:43.456Z,50.59
2019-05-22T15:03:45.948Z,50.68
2019-05-22T15:08:48.539Z,51.72
2019-05-22T15:13:50.972Z,50.55
2019-05-22T15:18:53.461Z,52.42
2019-05-22T15:23:55.971Z,52.86
2019-05-22T15:28:58.450Z,51.73
2019-05-22T15:34:00.953Z,51.02
2019-05-22T15:39:05.337Z,51.69
2019-05-22T15:44:06.092Z,51.58
2019-05-22T15:49:08.588Z,52.14
2019-05-22T15:54:11.074Z,52.07
2019-05-22T15:59:13.555Z,52.36
2019-05-22T16:04:16.254Z,50.84
2019-05-22T16:09:18.779Z,50.22
2019-05-22T16:14:21.278Z,49.87
2019-05-22T16:19:23.787Z,50.80
2019-05-22T16:24:26.271Z,51.28
2019-05-22T16:29:28.784Z,51.65
2019-05-22T16:34:31.258Z,51.48
2019-05-22T16:39:33.765Z,52.61
2019-05-22T16:44:36.261Z,53.19
2019-05-22T16:49:38.744Z,50.47
2019-05-22T16:54:41.250Z,50.77
2019-05-22T16:59:43.759Z,51.11
2019-05-22T17:04:46.255Z,51.40
2019-05-22T17:09:48.755Z,51.27
2019-05-22T17:14:51.261Z,52.66
2019-05-22T17:19:53.761Z,52.17
2019-05-22T17:24:56.307Z,51.58
2019-05-22T17:29:58.759Z,51.61
2019-05-22T17:35:01.461Z,52.41
2019-05-22T17:40:06.508Z,52.99
2019-05-22T17:45:09.010Z,53.17
2019-05-22T17:50:25.335Z,52.71
2019-05-22T17:55:14.018Z,53.39
2019-05-22T18:00:16.554Z,55.28
2019-05-22T18:05:19.055Z,55.12
2019-05-22T18:10:21.555Z,54.56
2019-05-22T18:15:24.039Z,54.25
2019-05-22T18:20:41.404Z,54.63
2019-05-22T18:25:29.047Z,54.87
2019-05-22T18:30:31.544Z,55.92
2019-05-22T18:35:34.022Z,56.76
2019-05-22T18:40:36.523Z,57.69
2019-05-22T18:45:39.004Z,57.75
2019-05-22T18:50:41.482Z,58.30
2019-05-22T18:55:44.000Z,59.41
2019-05-22T19:00:46.622Z,60.42
2019-05-22T19:05:49.156Z,60.95
2019-05-22T19:10:51.642Z,61.82
2019-05-22T19:15:54.134Z,62.61
2019-05-22T19:20:56.640Z,63.99
2019-05-22T19:25:59.161Z,64.46
2019-05-22T19:31:01.683Z,65.56
2019-05-22T19:36:04.167Z,66.21
2019-05-22T19:41:06.659Z,66.67
2019-05-22T19:46:09.151Z,67.45
2019-05-22T19:51:11.734Z,67.99
2019-05-22T19:56:14.240Z,68.65
2019-05-22T20:01:16.738Z,68.89
2019-05-22T20:06:19.251Z,69.16
2019-05-22T20:11:21.757Z,69.66
2019-05-22T20:16:24.231Z,69.99
2019-05-22T20:21:26.783Z,70.27
2019-05-22T20:26:29.254Z,70.61
2019-05-22T20:31:31.761Z,71.20
2019-05-22T20:36:34.323Z,71.36
2019-05-22T20:41:36.741Z,71.56
2019-05-22T20:46:39.235Z,71.79
2019-05-22T20:51:41.723Z,72.11
2019-05-22T20:56:44.280Z,72.29
2019-05-22T21:01:46.782Z,72.54
2019-05-22T21:06:55.270Z,72.66
2019-05-22T21:11:57.769Z,72.52
2019-05-22T21:17:00.473Z,72.62
2019-05-22T21:22:02.999Z,72.66
2019-05-22T21:27:05.476Z,72.87
2019-05-22T21:32:08.174Z,73.01
2019-05-22T21:37:10.599Z,73.16
2019-05-22T21:42:13.113Z,73.44
2019-05-22T21:47:15.597Z,73.40
2019-05-22T21:52:18.125Z,73.73
2019-05-22T21:57:20.642Z,73.89
2019-05-22T22:02:25.975Z,73.93
2019-05-22T22:07:28.477Z,74.06
2019-05-22T22:12:30.975Z,74.17
2019-05-22T22:17:33.515Z,74.15
2019-05-22T22:22:36.001Z,74.04
2019-05-22T22:27:38.491Z,74.26
2019-05-22T22:32:41.015Z,74.33
2019-05-22T22:37:43.487Z,74.39
2019-05-22T22:42:46.019Z,74.62
2019-05-22T22:47:48.521Z,74.52
2019-05-22T22:52:51.013Z,74.57
2019-05-22T22:57:53.515Z,74.67
2019-05-22T23:02:56.013Z,74.81
2019-05-22T23:07:58.594Z,74.87
2019-05-22T23:13:01.089Z,75.23
2019-05-22T23:18:03.582Z,74.89
2019-05-22T23:23:05.539Z,74.83
2019-05-22T23:28:08.090Z,74.96
2019-05-22T23:33:10.549Z,74.89
2019-05-22T23:38:13.052Z,74.81
2019-05-22T23:43:15.554Z,75.11
2019-05-22T23:48:18.059Z,75.16
2019-05-22T23:53:20.572Z,75.28
2019-05-22T23:58:23.098Z,75.26
